Detalii statie AFILIU TRANS MIZIL [00001982]

Toti senzorii

Date Temperatura solului [C]Precipitatii [mm]Voltaj baterie [mV]Leaf Wetness [Min]HC Air temperature [C]HC Relative humidity [%]Punctul de roua [C]
medieminmaxsumaultimatimpmedieminmaxmediemediemin
2018-02-23 13:00:00 0 7216 0.61 0.32 0.86 91.65 -0.5 -0.9
2018-02-23 14:00:00 0 7216 1.11 0.74 1.32 88.46 -0.6 -1
2018-02-23 15:00:00 0 7206 1.35 1.12 1.44 86.2 -0.7 -0.9
2018-02-23 16:00:00 0 7206 1.26 1.09 1.56 87.57 -0.5 -0.9
2018-02-23 17:00:00 0 7088 1 0.77 1.15 89.93 -0.5 -0.8
2018-02-23 18:00:00 0 6962 0.5 0.32 0.7 92.99 -0.5 -0.6
2018-02-23 19:00:00 0 6904 0.14 0.02 0.29 95.96 -0.4 -0.5
2018-02-23 20:00:00 0 6874 -0.05 -0.1 0.03 98.41 -0.1 -0.3
2018-02-23 21:00:00 0 6874 -0.13 -0.19 -0.09 99.76 0 -0.1
2018-02-23 22:00:00 0 6864 -0.21 -0.26 -0.18 100 0 -0.1
2018-02-23 23:00:00 0 6854 -0.29 -0.35 -0.27 100 -0.1 -0.2
2018-02-24 00:00:00 0 6844 -0.34 -0.42 -0.28 100 -0.1 -0.3
2018-02-24 01:00:00 0 6826 -0.44 -0.51 -0.41 100 -0.3 -0.4
2018-02-24 02:00:00 0 6826 -0.51 -0.62 -0.41 100 -0.3 -0.5
2018-02-24 03:00:00 0 6826 -0.44 -0.51 -0.41 100 -0.3 -0.4
2018-02-24 04:00:00 0 6816 -0.39 -0.54 -0.33 100 -0.2 -0.4
2018-02-24 05:00:00 0 6816 -0.44 -0.51 -0.4 100 -0.3 -0.4
2018-02-24 06:00:00 0 6806 -0.55 -0.62 -0.49 100 -0.4 -0.5
2018-02-24 07:00:00 0 6806 -0.53 -0.67 -0.47 100 -0.3 -0.5
2018-02-24 08:00:00 0 6786 -0.42 -0.55 -0.32 100 -0.2 -0.4
2018-02-24 09:00:00 0 6826 -0.18 -0.29 -0.12 100 0 -0.1
2018-02-24 10:00:00 0 6952 0 -0.08 0.09 100 0 0
2018-02-24 11:00:00 0 7128 -0.14 -0.22 -0.02 100 0 -0.1
2018-02-24 12:00:00 0 7206 -0.22 -0.37 0 99.77 -0.1 -0.3
2018-02-24 13:00:00 0 7216 0.22 0.08 0.35 87.69 -1.6 -2.7
2018-02-24 14:00:00 0 7216 0.2 0.08 0.4 86.62 -1.8 -3
2018-02-24 15:00:00 0 7196 -0.08 -0.26 0.07 87.34 -1.9 -2.5
2018-02-24 16:00:00 0 7166 -0.59 -0.9 -0.19 83.5 -2.9 -3.5
2018-02-24 17:00:00 0 7030 -1.34 -1.72 -1.03 87.83 -3 -3.4
2018-02-24 18:00:00 0 6922 -2.06 -2.28 -1.8 93.93 -2.8 -3
2018-02-24 19:00:00 0 6864 -2.7 -2.95 -2.26 95.01 -3.2 -3.5
2018-02-24 20:00:00 0 6834 -3.06 -3.22 -2.92 95.97 -3.5 -4.2
2018-02-24 21:00:00 0 6826 -2.81 -2.92 -2.77 74.95 -6.5 -7.4
2018-02-24 22:00:00 0 6816 -2.87 -2.94 -2.84 69.04 -7.7 -8
2018-02-24 23:00:00 0 6816 -3.02 -3.18 -2.91 66.09 -8.3 -8.7
2018-02-25 00:00:00 0 6806 -3.39 -3.49 -3.23 62.92 -9.3 -9.7
2018-02-25 01:00:00 0 6786 -3.54 -3.64 -3.5 60.03 -10.1 -10.7
2018-02-25 02:00:00 0 6786 -3.84 -4 -3.65 59.77 -10.4 -10.6
2018-02-25 03:00:00 0 6786 -4.06 -4.14 -3.97 59.16 -10.8 -11.7
2018-02-25 04:00:00 0 6776 -4.35 -4.55 -4.2 59.05 -11.1 -11.7
2018-02-25 05:00:00 0 6766 -4.69 -4.76 -4.61 59.31 -11.3 -11.6
2018-02-25 06:00:00 0 6776 -4.86 -5 -4.73 55.73 -12.3 -12.9
2018-02-25 07:00:00 0 6766 -5.26 -5.42 -5.1 57.29 -12.3 -12.7
2018-02-25 08:00:00 0 6766 -5.35 -5.49 -5.17 57.97 -12.2 -12.4
2018-02-25 09:00:00 0 7098 -4.94 -5.14 -4.71 55.81 -12.3 -12.5
2018-02-25 10:00:00 0 7206 -4.17 -4.63 -3.8 53.99 -12 -12.4
2018-02-25 11:00:00 0 7216 -3.3 -3.73 -2.93 50.86 -11.9 -12.3
2018-02-25 12:00:00 0 7246 -3.01 -3.24 -2.72 49.34 -12.1 -12.6